Time;durP1;ratioP1;P1;durP2;ratioP2;P2;SDS_P1;SDS_P2;PMS_P1;PMS_P2;Temp;Humidity;BMP_temperature;BMP_pressure;BME280_temperature;BME280_humidity;BME280_pressure;Samples;Min_cycle;Max_cycle;Signal;HPM_P1;HPM_P2
2021/03/22 00:00:22;;;;;;;2.92;2.67;;;9.30;99.90;;;;;;5125937;28;20549;-41
2021/03/22 00:02:52;;;;;;;5.43;3.03;;;9.50;99.90;;;;;;5125982;28;20203;-43
2021/03/22 00:05:23;;;;;;;5.65;3.53;;;9.50;99.90;;;;;;5125278;28;20257;-42
2021/03/22 00:07:55;;;;;;;4.00;3.17;;;9.50;99.90;;;;;;5125431;28;20200;-43
2021/03/22 00:10:26;;;;;;;4.43;3.10;;;9.40;99.90;;;;;;5123700;28;20269;-42
2021/03/22 00:12:58;;;;;;;5.57;3.00;;;9.50;99.90;;;;;;5124523;28;20212;-42
2021/03/22 00:15:32;;;;;;;3.15;2.85;;;9.40;99.90;;;;;;5124784;28;20620;-42
2021/03/22 00:18:03;;;;;;;5.32;3.20;;;9.30;99.90;;;;;;5125633;28;20220;-42
2021/03/22 00:20:37;;;;;;;3.70;3.40;;;9.20;99.90;;;;;;5125423;28;20204;-42
2021/03/22 00:23:07;;;;;;;6.18;3.40;;;9.10;99.90;;;;;;5125556;28;20216;-42
2021/03/22 00:25:37;;;;;;;4.25;3.85;;;9.20;99.90;;;;;;5125251;28;20249;-42
2021/03/22 00:28:11;;;;;;;3.83;3.15;;;9.20;99.90;;;;;;5120397;28;20203;-42
2021/03/22 00:30:43;;;;;;;3.30;3.00;;;9.30;99.90;;;;;;5125389;28;20201;-42
2021/03/22 00:33:14;;;;;;;2.50;2.30;;;9.30;99.90;;;;;;5125359;28;20210;-42
2021/03/22 00:35:45;;;;;;;2.42;2.22;;;9.30;99.90;;;;;;5125718;28;20299;-43
2021/03/22 00:38:17;;;;;;;2.72;2.35;;;9.30;99.90;;;;;;5124069;28;20256;-42
2021/03/22 00:40:48;;;;;;;3.92;2.25;;;9.40;99.90;;;;;;5124681;28;20240;-42
2021/03/22 00:43:20;;;;;;;2.67;2.40;;;9.20;99.90;;;;;;5124653;28;20224;-42
2021/03/22 00:45:57;;;;;;;3.15;2.42;;;9.00;99.90;;;;;;5125084;28;20196;-42
2021/03/22 00:48:27;;;;;;;2.75;2.55;;;9.00;99.90;;;;;;5124561;28;20204;-42
2021/03/22 00:50:57;;;;;;;3.65;2.63;;;8.90;99.90;;;;;;5124053;28;20291;-42
2021/03/22 00:53:27;;;;;;;3.45;2.33;;;8.80;99.90;;;;;;5122814;28;20222;-42
2021/03/22 00:55:57;;;;;;;4.63;2.42;;;8.80;99.90;;;;;;5122710;28;20340;-42
2021/03/22 00:58:29;;;;;;;3.65;3.30;;;8.90;99.90;;;;;;5122711;28;20538;-41
2021/03/22 01:01:01;;;;;;;2.60;2.40;;;8.80;99.90;;;;;;5122696;28;20211;-41
2021/03/22 01:03:32;;;;;;;3.00;2.80;;;8.80;99.90;;;;;;5125303;28;20212;-41
2021/03/22 01:06:04;;;;;;;3.10;2.78;;;8.80;99.90;;;;;;5124739;28;20250;-41
2021/03/22 01:08:35;;;;;;;4.97;3.33;;;8.80;99.90;;;;;;5124442;28;20726;-41
2021/03/22 01:11:08;;;;;;;3.95;3.50;;;8.70;99.90;;;;;;5123065;28;20207;-43
2021/03/22 01:13:42;;;;;;;4.40;4.00;;;8.60;99.90;;;;;;5124661;28;20192;-42
2021/03/22 01:16:21;;;;;;;4.35;3.95;;;8.60;99.90;;;;;;5118974;28;20204;-42
2021/03/22 01:18:54;;;;;;;4.75;3.85;;;8.60;99.90;;;;;;5125357;28;20265;-43
2021/03/22 01:21:28;;;;;;;4.57;4.18;;;8.70;99.90;;;;;;5123844;28;20204;-43
2021/03/22 01:23:58;;;;;;;4.30;3.65;;;8.80;99.90;;;;;;5124158;28;20305;-43
2021/03/22 01:26:32;;;;;;;5.35;4.05;;;8.90;99.90;;;;;;5121974;28;20213;-44
2021/03/22 01:29:08;;;;;;;4.43;3.15;;;8.90;99.90;;;;;;5124690;28;20225;-44
2021/03/22 01:31:38;;;;;;;4.75;4.22;;;8.80;99.90;;;;;;5123192;28;20196;-43
2021/03/22 01:34:08;;;;;;;4.75;3.75;;;8.90;99.90;;;;;;5123568;28;20529;-43
2021/03/22 01:36:38;;;;;;;4.78;3.70;;;8.80;99.90;;;;;;5119424;28;20253;-43
2021/03/22 01:39:11;;;;;;;5.13;3.92;;;8.70;99.90;;;;;;5118533;28;20204;-43
2021/03/22 01:41:54;;;;;;;4.22;3.65;;;8.80;99.90;;;;;;5123270;28;20235;-44
2021/03/22 01:44:28;;;;;;;6.03;3.05;;;8.70;99.90;;;;;;5120855;28;20234;-43
2021/03/22 01:47:06;;;;;;;4.85;3.70;;;8.70;99.90;;;;;;5124450;28;20260;-44
2021/03/22 01:49:41;;;;;;;4.97;3.50;;;8.70;99.90;;;;;;5124272;28;20275;-45
2021/03/22 01:52:12;;;;;;;4.22;3.83;;;8.60;99.90;;;;;;5123908;28;20206;-43
2021/03/22 01:54:42;;;;;;;5.00;3.88;;;8.50;99.90;;;;;;5122794;28;20211;-45
2021/03/22 01:57:29;;;;;;;5.05;3.95;;;8.50;99.90;;;;;;5122883;28;20229;-44
2021/03/22 02:00:11;;;;;;;5.60;3.50;;;8.40;99.90;;;;;;5121209;28;20208;-43
2021/03/22 02:02:42;;;;;;;5.00;3.55;;;8.40;99.90;;;;;;5116698;28;20215;-43
2021/03/22 02:05:16;;;;;;;6.00;4.55;;;8.40;99.90;;;;;;5124318;28;20207;-43
2021/03/22 02:07:51;;;;;;;4.68;4.28;;;8.40;99.90;;;;;;5120744;28;20229;-43
2021/03/22 02:10:22;;;;;;;6.82;4.55;;;8.40;99.90;;;;;;5123724;28;20221;-44
2021/03/22 02:12:52;;;;;;;5.93;5.10;;;8.40;99.90;;;;;;5122558;28;20208;-44
2021/03/22 02:15:23;;;;;;;9.13;5.30;;;8.30;99.90;;;;;;5124089;28;20252;-43
2021/03/22 02:18:06;;;;;;;5.82;5.15;;;8.40;99.90;;;;;;5115033;28;20247;-44
2021/03/22 02:21:09;;;;;;;5.35;4.85;;;8.40;99.90;;;;;;5121823;28;20208;-43
2021/03/22 02:24:05;;;;;;;7.28;5.15;;;8.40;99.90;;;;;;5122705;28;20244;-44
2021/03/22 02:27:10;;;;;;;7.93;5.63;;;8.30;99.90;;;;;;5122318;28;20212;-43
2021/03/22 02:29:51;;;;;;;7.40;5.95;;;8.30;99.90;;;;;;5093587;28;20234;-43
2021/03/22 02:32:51;;;;;;;11.52;6.45;;;8.30;99.90;;;;;;5123090;28;20196;-42
2021/03/22 02:35:28;;;;;;;9.48;5.93;;;8.20;99.90;;;;;;5107930;28;20255;-42
2021/03/22 02:38:03;;;;;;;8.85;6.10;;;8.10;99.90;;;;;;5114282;28;20199;-43
2021/03/22 02:40:55;;;;;;;7.13;5.90;;;8.20;99.90;;;;;;5123589;28;20208;-42
2021/03/22 02:43:25;;;;;;;6.45;5.80;;;8.10;99.90;;;;;;5119070;28;20231;-42
2021/03/22 02:45:57;;;;;;;8.00;5.80;;;8.00;99.90;;;;;;5123088;28;20226;-43
2021/03/22 02:48:29;;;;;;;6.45;5.70;;;8.00;99.90;;;;;;5119921;28;20200;-42
2021/03/22 02:51:09;;;;;;;9.73;6.55;;;8.00;99.90;;;;;;5123322;28;20217;-42
2021/03/22 02:53:55;;;;;;;8.45;6.82;;;8.00;99.90;;;;;;5123203;28;20646;-41
2021/03/22 02:56:37;;;;;;;7.22;5.85;;;8.00;99.90;;;;;;5116929;28;20211;-42
2021/03/22 02:59:14;;;;;;;6.78;5.68;;;8.00;99.90;;;;;;5118519;28;20619;-42
2021/03/22 03:01:48;;;;;;;7.20;6.50;;;8.00;99.90;;;;;;5122138;28;20199;-44
2021/03/22 03:04:20;;;;;;;7.05;6.03;;;7.90;99.90;;;;;;5124017;28;20551;-42
2021/03/22 03:06:53;;;;;;;7.65;5.82;;;7.90;99.90;;;;;;5123278;28;20521;-42
2021/03/22 03:09:28;;;;;;;6.38;5.00;;;7.90;99.90;;;;;;5122837;28;20208;-42
2021/03/22 03:12:08;;;;;;;6.43;5.07;;;7.90;99.90;;;;;;5122388;28;20212;-41
2021/03/22 03:14:38;;;;;;;6.80;5.32;;;8.00;99.90;;;;;;5122698;28;20332;-42
2021/03/22 03:17:08;;;;;;;7.72;6.20;;;8.00;99.90;;;;;;5122930;28;20581;-42
2021/03/22 03:19:39;;;;;;;6.68;5.03;;;8.00;99.90;;;;;;5121784;28;20243;-42
2021/03/22 03:22:10;;;;;;;9.63;6.00;;;8.00;99.90;;;;;;5122380;28;20203;-42
2021/03/22 03:24:41;;;;;;;5.72;4.70;;;7.90;99.90;;;;;;5121865;28;20253;-42
2021/03/22 03:27:13;;;;;;;5.32;4.82;;;7.90;99.90;;;;;;5121228;28;20208;-41
2021/03/22 03:29:43;;;;;;;6.38;5.70;;;7.90;99.90;;;;;;5123256;28;20204;-42
2021/03/22 03:32:15;;;;;;;5.57;4.85;;;7.90;99.90;;;;;;5122693;28;20196;-42
2021/03/22 03:34:46;;;;;;;5.10;4.20;;;8.00;99.90;;;;;;5124454;28;20225;-42
2021/03/22 03:37:17;;;;;;;5.22;4.18;;;7.90;99.90;;;;;;5124967;28;20200;-42
2021/03/22 03:39:47;;;;;;;5.50;5.00;;;7.90;99.90;;;;;;5123610;28;20245;-42
2021/03/22 03:42:36;;;;;;;5.18;4.68;;;7.90;99.90;;;;;;5125302;28;20235;-42
2021/03/22 03:45:08;;;;;;;5.25;4.38;;;7.90;99.90;;;;;;5117248;28;20321;-42
2021/03/22 03:47:38;;;;;;;5.43;4.32;;;7.90;99.90;;;;;;5112415;28;20246;-41
2021/03/22 03:50:10;;;;;;;5.13;4.63;;;7.90;99.90;;;;;;5124505;28;20196;-41
2021/03/22 03:52:42;;;;;;;5.32;4.70;;;7.80;99.90;;;;;;5125671;28;20200;-41
2021/03/22 03:55:13;;;;;;;5.18;4.68;;;7.90;99.90;;;;;;5125124;28;20291;-42
2021/03/22 03:57:47;;;;;;;6.30;4.47;;;7.90;99.90;;;;;;5125216;28;20241;-42
2021/03/22 04:00:24;;;;;;;6.32;5.30;;;7.90;99.90;;;;;;5124993;28;20315;-42
2021/03/22 04:02:54;;;;;;;8.05;5.90;;;7.90;99.90;;;;;;5126164;28;20214;-42
2021/03/22 04:05:27;;;;;;;6.47;4.50;;;7.80;99.90;;;;;;5124211;28;20206;-41
2021/03/22 04:07:58;;;;;;;5.93;4.95;;;7.90;99.90;;;;;;5125249;27;20200;-41
2021/03/22 04:10:28;;;;;;;5.30;4.90;;;7.80;99.90;;;;;;5125651;28;20200;-41
2021/03/22 04:12:58;;;;;;;5.05;4.25;;;7.80;99.90;;;;;;5125650;28;20286;-41
2021/03/22 04:15:28;;;;;;;7.28;6.53;;;7.80;99.90;;;;;;5125285;28;20249;-41
2021/03/22 04:17:58;;;;;;;5.97;4.35;;;7.80;99.90;;;;;;5125449;28;20244;-42
2021/03/22 04:20:29;;;;;;;5.32;4.32;;;7.90;99.90;;;;;;5125404;28;20204;-41
2021/03/22 04:23:00;;;;;;;6.57;5.13;;;7.90;99.90;;;;;;5122917;28;20212;-41
2021/03/22 04:25:30;;;;;;;5.47;4.60;;;7.90;99.90;;;;;;5124868;28;20241;-41
2021/03/22 04:28:00;;;;;;;4.50;3.97;;;7.90;99.90;;;;;;5124799;28;20192;-43
2021/03/22 04:30:31;;;;;;;4.57;4.18;;;7.80;99.90;;;;;;5126084;28;20204;-43
2021/03/22 04:33:01;;;;;;;4.45;4.05;;;7.80;99.90;;;;;;5124843;28;20200;-43
2021/03/22 04:35:31;;;;;;;4.82;3.78;;;7.80;99.90;;;;;;5125158;28;20204;-43
2021/03/22 04:38:02;;;;;;;3.80;3.40;;;7.70;99.90;;;;;;5124919;28;20678;-43
2021/03/22 04:40:33;;;;;;;4.10;3.70;;;7.70;99.90;;;;;;5124450;28;20204;-43
2021/03/22 04:43:03;;;;;;;4.05;3.60;;;7.70;99.90;;;;;;5122320;28;20259;-43
2021/03/22 04:45:33;;;;;;;4.60;4.10;;;7.70;99.90;;;;;;5124442;28;20632;-42
2021/03/22 04:48:03;;;;;;;5.13;4.63;;;7.60;99.90;;;;;;5123525;28;20196;-42
2021/03/22 04:50:34;;;;;;;6.97;4.32;;;7.60;99.90;;;;;;5125201;28;20221;-41
2021/03/22 04:53:06;;;;;;;7.22;4.07;;;7.60;99.90;;;;;;5124015;28;20200;-41
2021/03/22 04:55:36;;;;;;;4.90;4.03;;;7.60;99.90;;;;;;5124837;28;20200;-41
2021/03/22 04:58:06;;;;;;;4.63;4.00;;;7.60;99.90;;;;;;5120485;28;20563;-41
2021/03/22 05:00:40;;;;;;;4.43;4.00;;;7.60;99.90;;;;;;5125006;28;20551;-41
2021/03/22 05:03:13;;;;;;;6.15;4.30;;;7.60;99.90;;;;;;5124383;28;20627;-41
2021/03/22 05:05:43;;;;;;;4.55;4.15;;;7.50;99.90;;;;;;5123894;28;20200;-41
2021/03/22 05:08:19;;;;;;;4.93;3.90;;;7.40;99.90;;;;;;5124074;28;20204;-41
2021/03/22 05:10:49;;;;;;;6.40;4.65;;;7.50;99.90;;;;;;5124317;28;20239;-41
2021/03/22 05:13:20;;;;;;;4.68;4.03;;;7.50;99.90;;;;;;5124526;28;20190;-41
2021/03/22 05:15:51;;;;;;;8.75;4.35;;;7.40;99.90;;;;;;5123973;28;20209;-41
2021/03/22 05:18:22;;;;;;;4.43;4.03;;;7.40;99.90;;;;;;5124689;28;20206;-41
2021/03/22 05:20:55;;;;;;;4.95;4.13;;;7.40;99.90;;;;;;5124441;28;20227;-41
2021/03/22 05:23:28;;;;;;;5.10;3.97;;;7.40;99.90;;;;;;5124526;28;20228;-40
2021/03/22 05:25:59;;;;;;;4.30;3.90;;;7.40;99.90;;;;;;5123579;28;20748;-42
2021/03/22 05:28:32;;;;;;;3.85;3.47;;;7.40;99.90;;;;;;5123999;28;20199;-42
2021/03/22 05:31:02;;;;;;;6.10;3.67;;;7.30;99.90;;;;;;5124459;28;20196;-41
2021/03/22 05:33:32;;;;;;;5.18;3.78;;;7.40;99.90;;;;;;5123979;28;20211;-41
2021/03/22 05:36:02;;;;;;;4.30;3.90;;;7.30;99.90;;;;;;5122906;28;20241;-41
2021/03/22 05:38:34;;;;;;;4.65;3.50;;;7.30;99.90;;;;;;5122828;28;20199;-42
2021/03/22 05:41:08;;;;;;;4.72;3.95;;;7.30;99.90;;;;;;5123690;28;20249;-41
2021/03/22 05:44:03;;;;;;;4.18;3.78;;;7.30;99.90;;;;;;5124796;28;20704;-41
2021/03/22 05:46:43;;;;;;;4.35;3.67;;;7.30;99.90;;;;;;5106770;28;20206;-41
2021/03/22 05:49:50;;;;;;;5.15;3.60;;;7.30;99.90;;;;;;5123372;28;20240;-41
2021/03/22 05:52:56;;;;;;;4.60;3.10;;;7.20;99.90;;;;;;5124503;28;20196;-41
2021/03/22 05:55:47;;;;;;;5.18;3.92;;;7.30;99.90;;;;;;5099887;28;20203;-41
2021/03/22 05:58:41;;;;;;;4.47;3.25;;;7.30;99.90;;;;;;5122895;28;20204;-41
2021/03/22 06:01:32;;;;;;;3.30;2.90;;;7.30;99.90;;;;;;5123887;28;20207;-41
2021/03/22 06:04:06;;;;;;;4.72;3.33;;;7.30;99.90;;;;;;5123248;28;20224;-41
2021/03/22 06:06:38;;;;;;;4.68;3.10;;;7.30;99.90;;;;;;5123789;28;20260;-41
2021/03/22 06:09:19;;;;;;;4.00;3.60;;;7.30;99.90;;;;;;5123290;28;20196;-41
2021/03/22 06:11:55;;;;;;;3.50;3.20;;;7.30;99.90;;;;;;5122874;28;20290;-41
2021/03/22 06:14:33;;;;;;;4.13;3.55;;;7.30;99.90;;;;;;5123340;28;20206;-42
2021/03/22 06:17:12;;;;;;;4.53;3.72;;;7.20;99.90;;;;;;5122647;28;20346;-41
2021/03/22 06:19:50;;;;;;;5.80;3.00;;;7.20;99.90;;;;;;5124377;28;20208;-41
2021/03/22 06:22:25;;;;;;;5.28;3.55;;;7.20;99.90;;;;;;5121768;28;20203;-41
2021/03/22 06:24:55;;;;;;;3.70;2.72;;;7.20;99.90;;;;;;5123508;28;20321;-41
2021/03/22 06:27:26;;;;;;;4.68;2.70;;;7.20;99.90;;;;;;5122544;28;20268;-41
2021/03/22 06:29:57;;;;;;;5.18;3.78;;;7.20;99.90;;;;;;5123329;28;20208;-41
2021/03/22 06:32:31;;;;;;;3.70;3.35;;;7.20;99.90;;;;;;5123049;28;20192;-40
2021/03/22 06:35:04;;;;;;;4.03;2.58;;;7.20;99.90;;;;;;5124186;28;20209;-41
2021/03/22 06:37:36;;;;;;;3.78;2.80;;;7.20;99.90;;;;;;5122633;28;20752;-41
2021/03/22 06:40:11;;;;;;;2.90;2.60;;;7.20;99.90;;;;;;5123746;28;20199;-41
2021/03/22 06:42:44;;;;;;;5.82;2.92;;;7.30;99.90;;;;;;5121684;28;20231;-41
2021/03/22 06:45:30;;;;;;;3.38;2.97;;;7.30;99.90;;;;;;5123028;28;20593;-41
2021/03/22 06:48:23;;;;;;;3.85;3.20;;;7.30;99.90;;;;;;5123274;28;20203;-41
2021/03/22 06:50:55;;;;;;;3.97;3.00;;;7.20;99.90;;;;;;5121639;28;20202;-41
2021/03/22 06:53:39;;;;;;;3.90;2.88;;;7.20;99.90;;;;;;5123653;28;20207;-42
2021/03/22 06:56:15;;;;;;;3.78;2.60;;;7.20;99.90;;;;;;5122694;28;20256;-41
2021/03/22 06:58:47;;;;;;;3.80;2.90;;;7.10;99.90;;;;;;5122707;28;20224;-41
2021/03/22 07:01:31;;;;;;;4.88;3.28;;;7.00;99.90;;;;;;5122690;28;20233;-41
2021/03/22 07:04:17;;;;;;;3.53;2.70;;;7.00;99.90;;;;;;5122599;28;20231;-41
2021/03/22 07:07:09;;;;;;;4.93;3.28;;;7.00;99.90;;;;;;5122856;28;20207;-41
2021/03/22 07:09:44;;;;;;;4.22;3.25;;;7.00;99.90;;;;;;5127547;28;20195;-41
2021/03/22 07:12:33;;;;;;;3.35;3.03;;;7.00;99.90;;;;;;5109986;28;20196;-41
2021/03/22 07:15:25;;;;;;;3.63;3.13;;;7.00;99.90;;;;;;5125638;28;20204;-41
2021/03/22 07:18:20;;;;;;;4.90;2.97;;;7.00;99.90;;;;;;5124896;28;20272;-42
2021/03/22 07:21:15;;;;;;;2.95;2.65;;;7.00;99.90;;;;;;5127056;28;20281;-40
2021/03/22 07:24:07;;;;;;;4.47;2.65;;;7.00;99.90;;;;;;5127699;28;20237;-42
2021/03/22 07:27:07;;;;;;;2.70;2.50;;;7.00;99.90;;;;;;5123567;28;20226;-42
2021/03/22 07:30:19;;;;;;;2.70;2.05;;;7.00;99.90;;;;;;5127662;28;20257;-42
2021/03/22 07:32:56;;;;;;;2.40;2.20;;;7.00;99.90;;;;;;5113433;28;20199;-42
2021/03/22 07:36:06;;;;;;;3.95;2.47;;;7.00;99.90;;;;;;5127005;28;20226;-42
2021/03/22 07:39:00;;;;;;;2.50;1.70;;;7.00;99.90;;;;;;5114606;28;20234;-42
2021/03/22 07:42:01;;;;;;;4.10;2.22;;;6.90;99.90;;;;;;5126227;28;20232;-41
2021/03/22 07:45:03;;;;;;;2.95;2.30;;;7.00;99.90;;;;;;5114930;28;20296;-42
2021/03/22 07:47:50;;;;;;;2.60;2.40;;;6.90;99.90;;;;;;5126581;28;20199;-41
2021/03/22 07:50:27;;;;;;;2.13;1.92;;;6.90;99.90;;;;;;5126303;28;20200;-41
2021/03/22 07:52:59;;;;;;;2.92;2.00;;;6.90;99.90;;;;;;5116444;28;20200;-41
2021/03/22 07:55:50;;;;;;;2.25;1.70;;;6.90;99.90;;;;;;5123964;28;20215;-41
2021/03/22 07:58:53;;;;;;;1.65;1.40;;;6.90;99.90;;;;;;5109520;28;20249;-41
2021/03/22 08:01:32;;;;;;;1.85;1.73;;;6.80;99.90;;;;;;5043114;28;20206;-42
2021/03/22 08:04:23;;;;;;;2.78;1.67;;;6.90;99.90;;;;;;5042612;28;20268;-41
2021/03/22 08:07:03;;;;;;;2.45;1.70;;;6.90;99.90;;;;;;5031177;28;20299;-41
2021/03/22 08:09:48;;;;;;;4.45;1.95;;;6.90;99.90;;;;;;5042816;28;20240;-45
2021/03/22 08:12:25;;;;;;;2.10;1.52;;;6.90;99.90;;;;;;5042516;28;20202;-42
2021/03/22 08:15:02;;;;;;;5.75;1.90;;;6.80;99.90;;;;;;5042696;28;20254;-41
2021/03/22 08:17:43;;;;;;;2.60;1.73;;;6.80;99.90;;;;;;5042812;28;20203;-41
2021/03/22 08:20:26;;;;;;;2.33;1.73;;;6.80;99.90;;;;;;5041307;28;20198;-41
2021/03/22 08:23:02;;;;;;;2.75;1.80;;;6.80;99.90;;;;;;5041016;28;20279;-41
2021/03/22 08:25:36;;;;;;;3.00;2.00;;;6.80;99.90;;;;;;5043107;28;20226;-41
2021/03/22 08:28:19;;;;;;;3.13;1.65;;;6.80;99.90;;;;;;5042081;28;20201;-41
2021/03/22 08:30:55;;;;;;;2.20;1.63;;;6.80;99.90;;;;;;5042559;28;20218;-41
2021/03/22 08:33:31;;;;;;;3.20;1.48;;;6.70;99.90;;;;;;5042199;28;20199;-41
2021/03/22 08:36:06;;;;;;;2.40;1.77;;;6.70;99.90;;;;;;5048557;28;20198;-41
2021/03/22 08:38:46;;;;;;;3.20;1.75;;;6.80;99.90;;;;;;5125100;28;20215;-41
2021/03/22 08:41:37;;;;;;;1.65;1.52;;;6.80;99.90;;;;;;5122380;28;20268;-41
2021/03/22 08:44:17;;;;;;;4.97;2.03;;;6.80;99.90;;;;;;5124950;28;20284;-41
2021/03/22 08:46:53;;;;;;;2.50;1.55;;;6.80;99.90;;;;;;5125739;28;20219;-40
2021/03/22 08:49:35;;;;;;;2.65;2.28;;;6.70;99.90;;;;;;5124889;28;20206;-41
2021/03/22 08:52:06;;;;;;;2.22;1.60;;;6.80;99.90;;;;;;5125456;28;20562;-41
2021/03/22 08:54:37;;;;;;;2.20;2.00;;;6.80;99.90;;;;;;5126520;28;20688;-41
2021/03/22 08:57:16;;;;;;;2.17;1.98;;;6.70;99.90;;;;;;5124236;28;20252;-41
2021/03/22 08:59:46;;;;;;;1.60;1.50;;;6.70;99.90;;;;;;5125601;28;20229;-41
2021/03/22 09:02:25;;;;;;;4.43;1.70;;;6.70;99.90;;;;;;5125147;28;20216;-41
2021/03/22 09:04:56;;;;;;;1.70;1.60;;;6.70;99.90;;;;;;5117196;28;20304;-41
2021/03/22 09:07:35;;;;;;;2.40;1.55;;;6.70;99.90;;;;;;5125376;28;20560;-41
2021/03/22 09:10:41;;;;;;;1.65;1.42;;;6.70;99.90;;;;;;5125658;28;20252;-41
2021/03/22 09:13:31;;;;;;;1.60;1.50;;;6.70;99.90;;;;;;5124694;28;20180;-42
2021/03/22 09:16:39;;;;;;;4.20;1.60;;;6.70;99.90;;;;;;5120988;28;20597;-42
2021/03/22 09:19:31;;;;;;;3.08;1.40;;;6.70;99.90;;;;;;5124953;28;20192;-42
2021/03/22 09:22:51;;;;;;;2.80;1.83;;;6.70;99.90;;;;;;5125020;28;20199;-43
2021/03/22 09:25:57;;;;;;;2.10;1.50;;;6.80;99.90;;;;;;5115838;28;20291;-41
2021/03/22 09:28:41;;;;;;;1.58;1.48;;;6.70;99.90;;;;;;5124060;28;20196;-42
2021/03/22 09:31:37;;;;;;;2.15;1.95;;;6.70;99.90;;;;;;5119570;28;20257;-43
2021/03/22 09:34:36;;;;;;;2.03;1.83;;;6.70;99.90;;;;;;5123760;28;20212;-43
2021/03/22 09:37:41;;;;;;;1.70;1.50;;;6.70;99.90;;;;;;5125441;28;20207;-42
2021/03/22 09:40:28;;;;;;;2.90;1.60;;;6.70;99.90;;;;;;5125130;28;20474;-42
2021/03/22 09:43:36;;;;;;;2.35;1.65;;;6.70;99.90;;;;;;5122436;28;20524;-42
2021/03/22 09:46:31;;;;;;;1.60;1.50;;;6.60;99.90;;;;;;5120648;28;20197;-42
2021/03/22 09:49:27;;;;;;;1.55;1.45;;;6.60;99.90;;;;;;5125066;28;20208;-42
2021/03/22 09:52:16;;;;;;;3.55;1.60;;;6.60;99.90;;;;;;5107260;28;20204;-42
2021/03/22 09:54:46;;;;;;;1.40;1.30;;;6.60;99.90;;;;;;5122692;28;20293;-42
2021/03/22 09:57:37;;;;;;;2.03;1.55;;;6.60;99.90;;;;;;5107194;28;20192;-44
2021/03/22 10:00:30;;;;;;;2.28;1.55;;;6.70;99.90;;;;;;5124295;28;20214;-44
2021/03/22 10:03:02;;;;;;;1.40;1.30;;;6.60;99.90;;;;;;5123856;28;20200;-42
2021/03/22 10:05:52;;;;;;;1.98;1.40;;;6.60;99.90;;;;;;5123564;28;20237;-42
2021/03/22 10:08:25;;;;;;;1.85;1.30;;;6.60;99.90;;;;;;5123972;28;20249;-43
2021/03/22 10:10:58;;;;;;;1.50;1.40;;;6.60;99.90;;;;;;5123535;28;20211;-42
2021/03/22 10:13:32;;;;;;;1.35;1.25;;;6.60;99.90;;;;;;5123343;28;20203;-43
2021/03/22 10:16:09;;;;;;;1.55;1.10;;;6.60;99.90;;;;;;5124889;28;20188;-42
2021/03/22 10:18:44;;;;;;;0.88;0.80;;;6.70;99.90;;;;;;5123695;28;20221;-43
2021/03/22 10:21:17;;;;;;;1.17;0.95;;;6.70;99.90;;;;;;5123836;28;20204;-43
2021/03/22 10:23:55;;;;;;;1.02;0.95;;;6.70;99.90;;;;;;5123718;28;20199;-43
2021/03/22 10:26:31;;;;;;;0.95;0.85;;;6.70;99.90;;;;;;5123715;28;20674;-43
2021/03/22 10:29:15;;;;;;;1.55;1.13;;;6.70;99.90;;;;;;5123917;28;20272;-43
2021/03/22 10:31:45;;;;;;;0.80;0.80;;;6.70;99.90;;;;;;5124533;27;20196;-43
2021/03/22 10:34:23;;;;;;;1.52;1.20;;;6.70;99.90;;;;;;5123898;28;20249;-42
2021/03/22 10:36:53;;;;;;;1.20;0.77;;;6.60;99.90;;;;;;5124067;28;20256;-43
2021/03/22 10:39:31;;;;;;;0.80;0.80;;;6.60;99.90;;;;;;5124199;28;20208;-41
2021/03/22 10:42:03;;;;;;;1.38;0.80;;;6.70;99.90;;;;;;5121161;28;20228;-43
2021/03/22 10:44:37;;;;;;;0.80;0.80;;;6.60;99.90;;;;;;5124069;28;20215;-44
2021/03/22 10:47:12;;;;;;;1.38;0.80;;;6.70;99.90;;;;;;5124039;28;20187;-45
2021/03/22 10:49:44;;;;;;;0.82;0.73;;;6.70;99.90;;;;;;5123486;28;20195;-45
2021/03/22 10:52:23;;;;;;;1.23;0.95;;;6.70;99.90;;;;;;5123611;28;20196;-44
2021/03/22 10:54:54;;;;;;;0.88;0.88;;;6.70;99.90;;;;;;5124534;28;20272;-43
2021/03/22 10:57:27;;;;;;;0.70;0.70;;;6.70;99.90;;;;;;5123401;28;20207;-42
2021/03/22 11:00:00;;;;;;;1.77;1.02;;;6.70;99.90;;;;;;5112514;28;20230;-43
2021/03/22 11:02:36;;;;;;;0.85;0.85;;;6.70;99.90;;;;;;5123107;28;20200;-43
2021/03/22 11:05:11;;;;;;;1.20;0.70;;;6.70;99.90;;;;;;5124166;28;20239;-41
2021/03/22 11:07:41;;;;;;;0.88;0.82;;;6.70;99.90;;;;;;5124299;28;20191;-42
2021/03/22 11:10:23;;;;;;;1.27;1.17;;;6.70;99.90;;;;;;5123227;28;20200;-42
2021/03/22 11:12:54;;;;;;;0.80;0.80;;;6.70;99.90;;;;;;5114839;28;20203;-42
2021/03/22 11:15:29;;;;;;;1.17;1.05;;;6.70;99.90;;;;;;5123698;28;20593;-42
2021/03/22 11:18:04;;;;;;;0.85;0.80;;;6.70;99.90;;;;;;5121584;28;20283;-42
2021/03/22 11:20:36;;;;;;;1.40;0.80;;;6.70;99.90;;;;;;5119264;28;20531;-42
2021/03/22 11:23:18;;;;;;;1.67;0.60;;;6.70;99.90;;;;;;5123687;28;20227;-42
2021/03/22 11:25:48;;;;;;;0.70;0.70;;;6.70;99.90;;;;;;5123863;28;20272;-42
2021/03/22 11:28:30;;;;;;;0.50;0.50;;;6.70;99.90;;;;;;5120622;28;20238;-42
2021/03/22 11:31:05;;;;;;;0.90;0.70;;;6.60;99.90;;;;;;5114051;28;20203;-43
2021/03/22 11:33:41;;;;;;;0.90;0.80;;;6.70;99.90;;;;;;5122740;28;20259;-43
2021/03/22 11:36:15;;;;;;;0.98;0.98;;;6.60;99.90;;;;;;5123000;28;20306;-42
2021/03/22 11:38:50;;;;;;;0.90;0.90;;;6.60;99.90;;;;;;5122470;28;20203;-42
2021/03/22 11:41:31;;;;;;;0.80;0.80;;;6.60;99.90;;;;;;5122087;28;20227;-42
2021/03/22 11:44:07;;;;;;;1.00;0.90;;;6.60;99.90;;;;;;5123837;28;20188;-43
2021/03/22 11:46:37;;;;;;;1.40;0.95;;;6.70;99.90;;;;;;5122252;28;20199;-46
2021/03/22 11:49:31;;;;;;;0.77;0.77;;;6.70;99.90;;;;;;5122937;28;20196;-45
2021/03/22 11:52:03;;;;;;;0.80;0.80;;;6.70;99.90;;;;;;5122494;28;20210;-41
2021/03/22 11:54:48;;;;;;;0.80;0.80;;;6.70;99.90;;;;;;5124541;28;20204;-42
2021/03/22 11:57:20;;;;;;;0.70;0.70;;;6.70;99.90;;;;;;5126005;28;20200;-43
2021/03/22 11:59:53;;;;;;;0.80;0.80;;;6.70;99.90;;;;;;5121850;28;20196;-42
2021/03/22 12:02:27;;;;;;;1.23;0.88;;;6.70;99.90;;;;;;5126225;28;20196;-42
2021/03/22 12:05:00;;;;;;;0.70;0.70;;;6.70;99.90;;;;;;5126309;28;20215;-43
2021/03/22 12:07:48;;;;;;;0.73;0.73;;;6.80;99.90;;;;;;5126690;28;20696;-41
2021/03/22 12:10:24;;;;;;;1.75;0.75;;;6.80;99.90;;;;;;5126238;28;20249;-41
2021/03/22 12:12:54;;;;;;;0.80;0.80;;;6.70;99.90;;;;;;5123941;28;20192;-43
2021/03/22 12:15:25;;;;;;;0.65;0.63;;;6.70;99.90;;;;;;5123993;28;20196;-44
2021/03/22 12:18:00;;;;;;;0.50;0.50;;;6.70;99.90;;;;;;5125937;28;20196;-43
2021/03/22 12:20:31;;;;;;;1.00;0.90;;;6.60;99.90;;;;;;5126079;28;20206;-43
2021/03/22 12:23:03;;;;;;;0.80;0.50;;;6.70;99.90;;;;;;5125299;28;20200;-42
2021/03/22 12:25:36;;;;;;;1.23;0.70;;;6.60;99.90;;;;;;5125227;28;20220;-42
2021/03/22 12:28:06;;;;;;;0.88;0.70;;;6.60;99.90;;;;;;5124947;28;20200;-42
2021/03/22 12:30:36;;;;;;;0.70;0.70;;;6.60;99.90;;;;;;5123697;28;20207;-42
2021/03/22 12:33:08;;;;;;;0.57;0.55;;;6.60;99.90;;;;;;5125453;28;20200;-43
2021/03/22 12:35:39;;;;;;;0.70;0.63;;;6.60;99.90;;;;;;5126690;28;20188;-43
2021/03/22 12:38:10;;;;;;;0.75;0.55;;;6.60;99.90;;;;;;5124760;28;20211;-42
2021/03/22 12:40:40;;;;;;;1.10;1.02;;;6.60;99.90;;;;;;5124512;28;20219;-42
2021/03/22 12:43:22;;;;;;;1.05;0.73;;;6.50;99.90;;;;;;5124787;28;20214;-42
2021/03/22 12:45:52;;;;;;;1.02;0.70;;;6.50;99.90;;;;;;5125567;28;20224;-43
2021/03/22 12:48:22;;;;;;;1.00;0.80;;;6.60;99.90;;;;;;5124724;28;20450;-42
2021/03/22 12:50:53;;;;;;;0.70;0.65;;;6.50;99.90;;;;;;5125360;28;20206;-42
2021/03/22 12:53:24;;;;;;;0.82;0.63;;;6.50;99.90;;;;;;5125198;28;20223;-42
2021/03/22 12:55:54;;;;;;;3.05;0.90;;;6.60;99.90;;;;;;5125413;28;20221;-43
2021/03/22 12:58:25;;;;;;;1.67;0.88;;;6.60;99.90;;;;;;5124268;28;20265;-43
2021/03/22 13:00:57;;;;;;;0.70;0.70;;;6.60;99.90;;;;;;5125353;28;20200;-44
2021/03/22 13:03:29;;;;;;;1.50;0.75;;;6.60;99.90;;;;;;5124274;28;20203;-44
2021/03/22 13:05:59;;;;;;;1.75;0.95;;;6.60;99.90;;;;;;5125151;28;20270;-44
2021/03/22 13:08:31;;;;;;;1.00;0.90;;;6.70;99.90;;;;;;5117516;28;20647;-43
2021/03/22 13:11:02;;;;;;;1.13;1.02;;;6.70;99.90;;;;;;5122164;28;20918;-44
2021/03/22 13:13:32;;;;;;;0.95;0.60;;;6.70;99.90;;;;;;5124176;28;20253;-43
2021/03/22 13:16:02;;;;;;;2.22;1.10;;;6.70;99.90;;;;;;5124353;28;20196;-44
2021/03/22 13:18:33;;;;;;;0.90;0.90;;;6.70;99.90;;;;;;5124735;28;20204;-43
2021/03/22 13:21:08;;;;;;;0.88;0.75;;;6.70;99.90;;;;;;5124713;28;20255;-43
2021/03/22 13:23:39;;;;;;;1.95;0.88;;;6.70;99.90;;;;;;5124282;28;20256;-43
2021/03/22 13:26:11;;;;;;;1.15;1.02;;;6.70;99.90;;;;;;5124479;28;20288;-42
2021/03/22 13:28:43;;;;;;;1.35;1.02;;;6.70;99.90;;;;;;5119839;28;20192;-42
2021/03/22 13:31:18;;;;;;;2.08;0.90;;;6.70;99.90;;;;;;5119505;28;20249;-42
2021/03/22 13:33:52;;;;;;;0.93;0.90;;;6.70;99.90;;;;;;5124771;28;20207;-41
2021/03/22 13:36:24;;;;;;;1.02;0.80;;;6.80;99.90;;;;;;5124390;28;20554;-41
2021/03/22 13:38:55;;;;;;;0.57;0.55;;;6.80;99.90;;;;;;5124300;28;20204;-41
2021/03/22 13:41:30;;;;;;;0.70;0.70;;;6.80;99.90;;;;;;5123002;28;20257;-43
2021/03/22 13:44:02;;;;;;;0.60;0.50;;;6.80;99.90;;;;;;5123682;28;20217;-41
2021/03/22 13:46:33;;;;;;;0.73;0.73;;;6.80;99.90;;;;;;5123878;28;20203;-41
2021/03/22 13:49:04;;;;;;;0.68;0.68;;;6.80;99.90;;;;;;5124487;28;20288;-41